sensor_id;sensor_type;location;lat;lon;timestamp;P1;durP1;ratioP1;P2;durP2;ratioP2
20170;SDS011;10245;51.344;6.620;2023-05-28T00:00:31;11.32;;;5.90;;
20170;SDS011;10245;51.344;6.620;2023-05-28T00:02:56;12.77;;;6.50;;
20170;SDS011;10245;51.344;6.620;2023-05-28T00:05:19;12.45;;;6.25;;
20170;SDS011;10245;51.344;6.620;2023-05-28T00:07:42;14.95;;;5.78;;
20170;SDS011;10245;51.344;6.620;2023-05-28T00:10:06;12.38;;;6.28;;
20170;SDS011;10245;51.344;6.620;2023-05-28T00:12:31;12.52;;;6.75;;
20170;SDS011;10245;51.344;6.620;2023-05-28T00:14:54;14.27;;;6.47;;
20170;SDS011;10245;51.344;6.620;2023-05-28T00:17:17;14.90;;;6.82;;
20170;SDS011;10245;51.344;6.620;2023-05-28T00:19:44;15.13;;;6.22;;
20170;SDS011;10245;51.344;6.620;2023-05-28T00:22:08;15.60;;;6.65;;
20170;SDS011;10245;51.344;6.620;2023-05-28T00:24:31;16.75;;;6.65;;
20170;SDS011;10245;51.344;6.620;2023-05-28T00:26:55;15.23;;;6.32;;
20170;SDS011;10245;51.344;6.620;2023-05-28T00:29:18;12.90;;;6.45;;
20170;SDS011;10245;51.344;6.620;2023-05-28T00:31:42;14.73;;;6.45;;
20170;SDS011;10245;51.344;6.620;2023-05-28T00:34:06;14.02;;;6.78;;
20170;SDS011;10245;51.344;6.620;2023-05-28T00:36:30;11.93;;;6.85;;
20170;SDS011;10245;51.344;6.620;2023-05-28T00:38:54;12.88;;;6.93;;
20170;SDS011;10245;51.344;6.620;2023-05-28T00:41:18;12.77;;;6.55;;
20170;SDS011;10245;51.344;6.620;2023-05-28T00:43:43;14.27;;;6.35;;
20170;SDS011;10245;51.344;6.620;2023-05-28T00:46:07;13.85;;;6.43;;
20170;SDS011;10245;51.344;6.620;2023-05-28T00:48:32;14.38;;;6.72;;
20170;SDS011;10245;51.344;6.620;2023-05-28T00:50:55;12.38;;;6.90;;
20170;SDS011;10245;51.344;6.620;2023-05-28T00:53:21;11.90;;;6.57;;
20170;SDS011;10245;51.344;6.620;2023-05-28T00:55:46;12.68;;;6.57;;
20170;SDS011;10245;51.344;6.620;2023-05-28T00:58:11;12.82;;;7.40;;
20170;SDS011;10245;51.344;6.620;2023-05-28T01:00:37;13.35;;;6.80;;
20170;SDS011;10245;51.344;6.620;2023-05-28T01:03:04;10.93;;;6.78;;
20170;SDS011;10245;51.344;6.620;2023-05-28T01:05:28;12.13;;;6.82;;
20170;SDS011;10245;51.344;6.620;2023-05-28T01:07:53;13.40;;;7.35;;
20170;SDS011;10245;51.344;6.620;2023-05-28T01:10:19;11.85;;;7.15;;
20170;SDS011;10245;51.344;6.620;2023-05-28T01:12:43;10.35;;;6.82;;
20170;SDS011;10245;51.344;6.620;2023-05-28T01:15:08;16.35;;;7.90;;
20170;SDS011;10245;51.344;6.620;2023-05-28T01:17:32;13.95;;;7.40;;
20170;SDS011;10245;51.344;6.620;2023-05-28T01:19:56;12.05;;;7.07;;
20170;SDS011;10245;51.344;6.620;2023-05-28T01:22:28;14.20;;;7.75;;
20170;SDS011;10245;51.344;6.620;2023-05-28T01:24:54;12.43;;;6.78;;
20170;SDS011;10245;51.344;6.620;2023-05-28T01:27:19;14.68;;;7.25;;
20170;SDS011;10245;51.344;6.620;2023-05-28T01:29:43;14.35;;;7.07;;
20170;SDS011;10245;51.344;6.620;2023-05-28T01:32:06;11.63;;;6.90;;
20170;SDS011;10245;51.344;6.620;2023-05-28T01:34:30;13.00;;;7.85;;
20170;SDS011;10245;51.344;6.620;2023-05-28T01:36:54;11.40;;;7.20;;
20170;SDS011;10245;51.344;6.620;2023-05-28T01:39:21;14.27;;;7.25;;
20170;SDS011;10245;51.344;6.620;2023-05-28T01:41:48;14.20;;;7.25;;
20170;SDS011;10245;51.344;6.620;2023-05-28T01:44:15;15.23;;;7.45;;
20170;SDS011;10245;51.344;6.620;2023-05-28T01:46:41;16.42;;;7.88;;
20170;SDS011;10245;51.344;6.620;2023-05-28T01:49:08;11.85;;;7.20;;
20170;SDS011;10245;51.344;6.620;2023-05-28T01:51:32;13.50;;;7.70;;
20170;SDS011;10245;51.344;6.620;2023-05-28T01:53:56;14.80;;;7.78;;
20170;SDS011;10245;51.344;6.620;2023-05-28T01:56:19;15.80;;;8.15;;
20170;SDS011;10245;51.344;6.620;2023-05-28T01:58:44;13.45;;;7.03;;
20170;SDS011;10245;51.344;6.620;2023-05-28T02:01:09;12.45;;;7.22;;
20170;SDS011;10245;51.344;6.620;2023-05-28T02:03:37;13.60;;;7.43;;
20170;SDS011;10245;51.344;6.620;2023-05-28T02:06:01;16.70;;;7.82;;
20170;SDS011;10245;51.344;6.620;2023-05-28T02:08:24;10.07;;;6.53;;
20170;SDS011;10245;51.344;6.620;2023-05-28T02:10:48;13.15;;;7.97;;
20170;SDS011;10245;51.344;6.620;2023-05-28T02:13:11;16.02;;;8.05;;
20170;SDS011;10245;51.344;6.620;2023-05-28T02:15:36;12.40;;;7.47;;
20170;SDS011;10245;51.344;6.620;2023-05-28T02:17:59;13.00;;;7.25;;
20170;SDS011;10245;51.344;6.620;2023-05-28T02:20:24;9.20;;;6.45;;
20170;SDS011;10245;51.344;6.620;2023-05-28T02:22:47;13.30;;;7.30;;
20170;SDS011;10245;51.344;6.620;2023-05-28T02:25:12;12.43;;;7.45;;
20170;SDS011;10245;51.344;6.620;2023-05-28T02:27:36;15.10;;;8.20;;
20170;SDS011;10245;51.344;6.620;2023-05-28T02:30:01;13.93;;;7.72;;
20170;SDS011;10245;51.344;6.620;2023-05-28T02:32:26;14.45;;;7.88;;
20170;SDS011;10245;51.344;6.620;2023-05-28T02:34:49;9.65;;;7.68;;
20170;SDS011;10245;51.344;6.620;2023-05-28T02:37:16;14.98;;;7.57;;
20170;SDS011;10245;51.344;6.620;2023-05-28T02:39:40;14.02;;;8.05;;
20170;SDS011;10245;51.344;6.620;2023-05-28T02:42:04;14.55;;;8.15;;
20170;SDS011;10245;51.344;6.620;2023-05-28T02:44:29;13.85;;;8.48;;
20170;SDS011;10245;51.344;6.620;2023-05-28T02:46:52;14.07;;;8.18;;
20170;SDS011;10245;51.344;6.620;2023-05-28T02:49:17;12.18;;;8.48;;
20170;SDS011;10245;51.344;6.620;2023-05-28T02:51:41;16.45;;;8.90;;
20170;SDS011;10245;51.344;6.620;2023-05-28T02:54:17;17.33;;;7.78;;
20170;SDS011;10245;51.344;6.620;2023-05-28T02:56:41;15.00;;;8.73;;
20170;SDS011;10245;51.344;6.620;2023-05-28T02:59:04;14.57;;;8.88;;
20170;SDS011;10245;51.344;6.620;2023-05-28T03:01:27;20.27;;;9.15;;
20170;SDS011;10245;51.344;6.620;2023-05-28T03:03:51;16.00;;;9.57;;
20170;SDS011;10245;51.344;6.620;2023-05-28T03:06:17;16.50;;;9.00;;
20170;SDS011;10245;51.344;6.620;2023-05-28T03:08:47;20.27;;;9.57;;
20170;SDS011;10245;51.344;6.620;2023-05-28T03:11:10;17.70;;;9.63;;
20170;SDS011;10245;51.344;6.620;2023-05-28T03:13:34;19.08;;;9.60;;
20170;SDS011;10245;51.344;6.620;2023-05-28T03:15:58;14.98;;;9.20;;
20170;SDS011;10245;51.344;6.620;2023-05-28T03:18:25;15.43;;;8.43;;
20170;SDS011;10245;51.344;6.620;2023-05-28T03:20:48;15.23;;;9.15;;
20170;SDS011;10245;51.344;6.620;2023-05-28T03:23:14;14.13;;;8.90;;
20170;SDS011;10245;51.344;6.620;2023-05-28T03:25:58;14.80;;;9.35;;
20170;SDS011;10245;51.344;6.620;2023-05-28T03:28:23;13.63;;;8.82;;
20170;SDS011;10245;51.344;6.620;2023-05-28T03:31:11;13.85;;;9.20;;
20170;SDS011;10245;51.344;6.620;2023-05-28T03:33:34;12.88;;;8.45;;
20170;SDS011;10245;51.344;6.620;2023-05-28T03:35:58;16.20;;;8.77;;
20170;SDS011;10245;51.344;6.620;2023-05-28T03:38:23;13.45;;;8.63;;
20170;SDS011;10245;51.344;6.620;2023-05-28T03:40:46;15.40;;;8.35;;
20170;SDS011;10245;51.344;6.620;2023-05-28T03:43:10;13.27;;;8.18;;
20170;SDS011;10245;51.344;6.620;2023-05-28T03:45:33;14.77;;;8.75;;
20170;SDS011;10245;51.344;6.620;2023-05-28T03:47:56;16.48;;;9.60;;
20170;SDS011;10245;51.344;6.620;2023-05-28T03:50:20;15.88;;;9.00;;
20170;SDS011;10245;51.344;6.620;2023-05-28T03:52:44;15.32;;;8.73;;
20170;SDS011;10245;51.344;6.620;2023-05-28T03:55:10;21.48;;;10.05;;
20170;SDS011;10245;51.344;6.620;2023-05-28T03:57:33;19.55;;;9.70;;
20170;SDS011;10245;51.344;6.620;2023-05-28T03:59:58;14.32;;;9.77;;
20170;SDS011;10245;51.344;6.620;2023-05-28T04:02:21;14.65;;;8.90;;
20170;SDS011;10245;51.344;6.620;2023-05-28T04:04:46;19.52;;;9.35;;
20170;SDS011;10245;51.344;6.620;2023-05-28T04:07:10;14.70;;;8.63;;
20170;SDS011;10245;51.344;6.620;2023-05-28T04:09:33;17.90;;;9.98;;
20170;SDS011;10245;51.344;6.620;2023-05-28T04:11:59;17.55;;;9.50;;
20170;SDS011;10245;51.344;6.620;2023-05-28T04:14:22;16.50;;;9.63;;
20170;SDS011;10245;51.344;6.620;2023-05-28T04:16:47;17.75;;;9.10;;
20170;SDS011;10245;51.344;6.620;2023-05-28T04:19:11;17.17;;;9.25;;
20170;SDS011;10245;51.344;6.620;2023-05-28T04:21:35;15.80;;;8.80;;
20170;SDS011;10245;51.344;6.620;2023-05-28T04:23:58;15.45;;;8.75;;
20170;SDS011;10245;51.344;6.620;2023-05-28T04:26:21;16.38;;;8.55;;
20170;SDS011;10245;51.344;6.620;2023-05-28T04:28:47;19.63;;;9.65;;
20170;SDS011;10245;51.344;6.620;2023-05-28T04:31:12;17.27;;;10.30;;
20170;SDS011;10245;51.344;6.620;2023-05-28T04:33:35;14.18;;;8.98;;
20170;SDS011;10245;51.344;6.620;2023-05-28T04:36:00;18.02;;;9.50;;
20170;SDS011;10245;51.344;6.620;2023-05-28T04:38:24;16.35;;;9.05;;
20170;SDS011;10245;51.344;6.620;2023-05-28T04:40:50;15.52;;;9.75;;
20170;SDS011;10245;51.344;6.620;2023-05-28T04:43:14;15.05;;;8.88;;
20170;SDS011;10245;51.344;6.620;2023-05-28T04:45:40;19.20;;;9.80;;
20170;SDS011;10245;51.344;6.620;2023-05-28T04:48:03;15.95;;;9.13;;
20170;SDS011;10245;51.344;6.620;2023-05-28T04:50:28;15.13;;;8.88;;
20170;SDS011;10245;51.344;6.620;2023-05-28T04:52:51;15.95;;;9.90;;
20170;SDS011;10245;51.344;6.620;2023-05-28T04:55:15;16.48;;;9.65;;
20170;SDS011;10245;51.344;6.620;2023-05-28T04:57:38;15.57;;;9.70;;
20170;SDS011;10245;51.344;6.620;2023-05-28T05:00:02;18.80;;;10.50;;
20170;SDS011;10245;51.344;6.620;2023-05-28T05:02:29;16.27;;;9.70;;
20170;SDS011;10245;51.344;6.620;2023-05-28T05:04:52;19.80;;;10.05;;
20170;SDS011;10245;51.344;6.620;2023-05-28T05:07:16;18.63;;;10.55;;
20170;SDS011;10245;51.344;6.620;2023-05-28T05:09:40;15.88;;;9.85;;
20170;SDS011;10245;51.344;6.620;2023-05-28T05:12:04;19.52;;;9.95;;
20170;SDS011;10245;51.344;6.620;2023-05-28T05:14:29;21.38;;;10.25;;
20170;SDS011;10245;51.344;6.620;2023-05-28T05:16:52;17.13;;;10.35;;
20170;SDS011;10245;51.344;6.620;2023-05-28T05:19:17;17.40;;;9.90;;
20170;SDS011;10245;51.344;6.620;2023-05-28T05:21:40;16.35;;;10.27;;
20170;SDS011;10245;51.344;6.620;2023-05-28T05:24:03;17.95;;;10.32;;
20170;SDS011;10245;51.344;6.620;2023-05-28T05:26:27;19.67;;;10.98;;
20170;SDS011;10245;51.344;6.620;2023-05-28T05:28:51;19.55;;;11.10;;
20170;SDS011;10245;51.344;6.620;2023-05-28T05:31:14;17.77;;;10.23;;
20170;SDS011;10245;51.344;6.620;2023-05-28T05:33:38;18.65;;;11.02;;
20170;SDS011;10245;51.344;6.620;2023-05-28T05:36:22;16.98;;;10.77;;
20170;SDS011;10245;51.344;6.620;2023-05-28T05:38:59;20.38;;;10.73;;
20170;SDS011;10245;51.344;6.620;2023-05-28T05:41:45;21.52;;;10.40;;
20170;SDS011;10245;51.344;6.620;2023-05-28T05:44:15;17.38;;;10.43;;
20170;SDS011;10245;51.344;6.620;2023-05-28T05:46:39;17.98;;;10.25;;
20170;SDS011;10245;51.344;6.620;2023-05-28T05:49:02;17.13;;;10.63;;
20170;SDS011;10245;51.344;6.620;2023-05-28T05:51:27;17.77;;;11.15;;
20170;SDS011;10245;51.344;6.620;2023-05-28T05:53:50;17.17;;;11.60;;
20170;SDS011;10245;51.344;6.620;2023-05-28T05:56:14;19.90;;;11.32;;
20170;SDS011;10245;51.344;6.620;2023-05-28T05:58:37;24.00;;;12.98;;
20170;SDS011;10245;51.344;6.620;2023-05-28T06:01:02;20.95;;;11.80;;
20170;SDS011;10245;51.344;6.620;2023-05-28T06:03:26;25.55;;;12.30;;
20170;SDS011;10245;51.344;6.620;2023-05-28T06:06:09;22.85;;;13.05;;
20170;SDS011;10245;51.344;6.620;2023-05-28T06:08:52;21.33;;;13.10;;
20170;SDS011;10245;51.344;6.620;2023-05-28T06:11:28;23.38;;;13.23;;
20170;SDS011;10245;51.344;6.620;2023-05-28T06:13:52;24.52;;;12.60;;
20170;SDS011;10245;51.344;6.620;2023-05-28T06:16:16;27.23;;;13.15;;
20170;SDS011;10245;51.344;6.620;2023-05-28T06:18:40;22.33;;;12.05;;
20170;SDS011;10245;51.344;6.620;2023-05-28T06:21:05;26.20;;;12.75;;
20170;SDS011;10245;51.344;6.620;2023-05-28T06:23:29;22.60;;;13.10;;
20170;SDS011;10245;51.344;6.620;2023-05-28T06:25:54;22.05;;;11.65;;
20170;SDS011;10245;51.344;6.620;2023-05-28T06:28:18;22.95;;;13.18;;
20170;SDS011;10245;51.344;6.620;2023-05-28T06:30:42;26.67;;;13.80;;
20170;SDS011;10245;51.344;6.620;2023-05-28T06:33:07;27.30;;;14.18;;
20170;SDS011;10245;51.344;6.620;2023-05-28T06:35:31;25.40;;;12.73;;
20170;SDS011;10245;51.344;6.620;2023-05-28T06:37:54;17.05;;;11.45;;
20170;SDS011;10245;51.344;6.620;2023-05-28T06:40:18;22.25;;;11.88;;
20170;SDS011;10245;51.344;6.620;2023-05-28T06:42:42;20.02;;;10.80;;
20170;SDS011;10245;51.344;6.620;2023-05-28T06:45:13;21.85;;;11.68;;
20170;SDS011;10245;51.344;6.620;2023-05-28T06:47:38;20.60;;;10.70;;
20170;SDS011;10245;51.344;6.620;2023-05-28T06:50:02;24.13;;;12.13;;
20170;SDS011;10245;51.344;6.620;2023-05-28T06:52:27;20.98;;;11.07;;
20170;SDS011;10245;51.344;6.620;2023-05-28T06:54:51;20.02;;;11.48;;
20170;SDS011;10245;51.344;6.620;2023-05-28T06:57:15;20.50;;;10.32;;
20170;SDS011;10245;51.344;6.620;2023-05-28T07:00:06;20.85;;;10.60;;
20170;SDS011;10245;51.344;6.620;2023-05-28T07:02:49;18.73;;;11.35;;
20170;SDS011;10245;51.344;6.620;2023-05-28T07:05:35;26.90;;;12.02;;
20170;SDS011;10245;51.344;6.620;2023-05-28T07:07:59;23.50;;;11.25;;
20170;SDS011;10245;51.344;6.620;2023-05-28T07:10:23;19.60;;;9.60;;
20170;SDS011;10245;51.344;6.620;2023-05-28T07:12:46;19.60;;;10.27;;
20170;SDS011;10245;51.344;6.620;2023-05-28T07:15:11;17.55;;;9.60;;
20170;SDS011;10245;51.344;6.620;2023-05-28T07:17:37;20.95;;;10.38;;
20170;SDS011;10245;51.344;6.620;2023-05-28T07:20:01;15.77;;;8.55;;
20170;SDS011;10245;51.344;6.620;2023-05-28T07:23:01;15.32;;;9.60;;
20170;SDS011;10245;51.344;6.620;2023-05-28T07:25:26;18.33;;;9.50;;
20170;SDS011;10245;51.344;6.620;2023-05-28T07:27:49;20.45;;;10.20;;
20170;SDS011;10245;51.344;6.620;2023-05-28T07:30:22;19.13;;;9.32;;
20170;SDS011;10245;51.344;6.620;2023-05-28T07:32:49;12.38;;;7.20;;
20170;SDS011;10245;51.344;6.620;2023-05-28T07:35:12;19.23;;;8.25;;
20170;SDS011;10245;51.344;6.620;2023-05-28T07:37:36;15.65;;;8.40;;
20170;SDS011;10245;51.344;6.620;2023-05-28T07:40:00;20.50;;;8.25;;
20170;SDS011;10245;51.344;6.620;2023-05-28T07:42:27;14.48;;;8.35;;
20170;SDS011;10245;51.344;6.620;2023-05-28T07:44:56;17.02;;;7.95;;
20170;SDS011;10245;51.344;6.620;2023-05-28T07:47:21;13.77;;;8.00;;
20170;SDS011;10245;51.344;6.620;2023-05-28T07:50:02;11.30;;;7.40;;
20170;SDS011;10245;51.344;6.620;2023-05-28T07:52:52;14.35;;;7.85;;
20170;SDS011;10245;51.344;6.620;2023-05-28T07:55:16;15.52;;;7.50;;
20170;SDS011;10245;51.344;6.620;2023-05-28T07:57:40;12.85;;;7.50;;
20170;SDS011;10245;51.344;6.620;2023-05-28T08:00:04;16.38;;;7.50;;
20170;SDS011;10245;51.344;6.620;2023-05-28T08:02:47;16.58;;;8.00;;
20170;SDS011;10245;51.344;6.620;2023-05-28T08:05:11;15.13;;;7.95;;
20170;SDS011;10245;51.344;6.620;2023-05-28T08:07:35;12.63;;;7.32;;
20170;SDS011;10245;51.344;6.620;2023-05-28T08:09:59;16.80;;;7.53;;
20170;SDS011;10245;51.344;6.620;2023-05-28T08:12:23;15.82;;;7.50;;
20170;SDS011;10245;51.344;6.620;2023-05-28T08:14:47;16.48;;;8.30;;
20170;SDS011;10245;51.344;6.620;2023-05-28T08:17:11;12.88;;;7.45;;
20170;SDS011;10245;51.344;6.620;2023-05-28T08:19:43;14.77;;;7.28;;
20170;SDS011;10245;51.344;6.620;2023-05-28T08:22:44;13.70;;;6.35;;
20170;SDS011;10245;51.344;6.620;2023-05-28T08:25:07;13.63;;;6.35;;
20170;SDS011;10245;51.344;6.620;2023-05-28T08:27:33;12.18;;;6.15;;
20170;SDS011;10245;51.344;6.620;2023-05-28T08:29:57;12.55;;;6.28;;
20170;SDS011;10245;51.344;6.620;2023-05-28T08:32:21;11.30;;;5.70;;
20170;SDS011;10245;51.344;6.620;2023-05-28T08:34:46;12.52;;;6.55;;
20170;SDS011;10245;51.344;6.620;2023-05-28T08:37:10;13.05;;;5.93;;
20170;SDS011;10245;51.344;6.620;2023-05-28T08:39:52;11.68;;;5.93;;
20170;SDS011;10245;51.344;6.620;2023-05-28T08:42:17;10.90;;;5.75;;
20170;SDS011;10245;51.344;6.620;2023-05-28T08:44:41;14.32;;;5.80;;
20170;SDS011;10245;51.344;6.620;2023-05-28T08:47:05;8.77;;;5.22;;
20170;SDS011;10245;51.344;6.620;2023-05-28T08:50:02;13.63;;;5.38;;
20170;SDS011;10245;51.344;6.620;2023-05-28T08:52:36;10.23;;;5.10;;
20170;SDS011;10245;51.344;6.620;2023-05-28T08:55:01;9.57;;;4.80;;
20170;SDS011;10245;51.344;6.620;2023-05-28T08:57:29;14.50;;;5.10;;
20170;SDS011;10245;51.344;6.620;2023-05-28T08:59:56;10.07;;;4.88;;
20170;SDS011;10245;51.344;6.620;2023-05-28T09:02:22;10.43;;;5.03;;
20170;SDS011;10245;51.344;6.620;2023-05-28T09:04:47;11.20;;;4.95;;
20170;SDS011;10245;51.344;6.620;2023-05-28T09:07:12;11.75;;;5.07;;
20170;SDS011;10245;51.344;6.620;2023-05-28T09:09:52;11.35;;;5.03;;
20170;SDS011;10245;51.344;6.620;2023-05-28T09:12:21;8.50;;;4.57;;
20170;SDS011;10245;51.344;6.620;2023-05-28T09:14:52;7.00;;;4.47;;
20170;SDS011;10245;51.344;6.620;2023-05-28T09:17:17;10.23;;;4.63;;
20170;SDS011;10245;51.344;6.620;2023-05-28T09:19:57;8.52;;;4.78;;
20170;SDS011;10245;51.344;6.620;2023-05-28T09:22:24;10.00;;;4.43;;
20170;SDS011;10245;51.344;6.620;2023-05-28T09:25:03;12.70;;;4.95;;
20170;SDS011;10245;51.344;6.620;2023-05-28T09:27:42;8.93;;;4.85;;
20170;SDS011;10245;51.344;6.620;2023-05-28T09:30:07;10.68;;;4.88;;
20170;SDS011;10245;51.344;6.620;2023-05-28T09:32:32;7.10;;;4.38;;
20170;SDS011;10245;51.344;6.620;2023-05-28T09:34:57;9.80;;;4.43;;
20170;SDS011;10245;51.344;6.620;2023-05-28T09:37:20;8.88;;;4.40;;
20170;SDS011;10245;51.344;6.620;2023-05-28T09:39:45;6.55;;;4.38;;
20170;SDS011;10245;51.344;6.620;2023-05-28T09:42:09;8.18;;;4.22;;
20170;SDS011;10245;51.344;6.620;2023-05-28T09:44:33;11.60;;;4.72;;
20170;SDS011;10245;51.344;6.620;2023-05-28T09:46:57;10.80;;;4.22;;
20170;SDS011;10245;51.344;6.620;2023-05-28T09:49:25;7.25;;;3.97;;
20170;SDS011;10245;51.344;6.620;2023-05-28T09:51:51;9.40;;;5.07;;
20170;SDS011;10245;51.344;6.620;2023-05-28T09:54:15;11.02;;;4.97;;
20170;SDS011;10245;51.344;6.620;2023-05-28T09:56:41;9.15;;;4.43;;
20170;SDS011;10245;51.344;6.620;2023-05-28T09:59:06;8.77;;;4.55;;
20170;SDS011;10245;51.344;6.620;2023-05-28T10:01:38;9.38;;;4.28;;
20170;SDS011;10245;51.344;6.620;2023-05-28T10:04:12;8.25;;;4.63;;
20170;SDS011;10245;51.344;6.620;2023-05-28T10:06:38;10.48;;;4.90;;
20170;SDS011;10245;51.344;6.620;2023-05-28T10:09:02;9.13;;;4.47;;
20170;SDS011;10245;51.344;6.620;2023-05-28T10:11:27;10.02;;;4.60;;
20170;SDS011;10245;51.344;6.620;2023-05-28T10:13:55;8.75;;;4.18;;
20170;SDS011;10245;51.344;6.620;2023-05-28T10:16:19;9.35;;;4.80;;
20170;SDS011;10245;51.344;6.620;2023-05-28T10:18:44;10.63;;;4.82;;
20170;SDS011;10245;51.344;6.620;2023-05-28T10:21:08;8.48;;;4.60;;
20170;SDS011;10245;51.344;6.620;2023-05-28T10:23:32;7.72;;;4.45;;
20170;SDS011;10245;51.344;6.620;2023-05-28T10:25:56;9.57;;;4.75;;
20170;SDS011;10245;51.344;6.620;2023-05-28T10:28:20;10.02;;;4.68;;
20170;SDS011;10245;51.344;6.620;2023-05-28T10:30:45;9.60;;;4.28;;
20170;SDS011;10245;51.344;6.620;2023-05-28T10:33:21;11.48;;;4.80;;
20170;SDS011;10245;51.344;6.620;2023-05-28T10:35:52;9.50;;;4.88;;
20170;SDS011;10245;51.344;6.620;2023-05-28T10:38:18;11.50;;;4.30;;
20170;SDS011;10245;51.344;6.620;2023-05-28T10:40:41;9.05;;;4.93;;
20170;SDS011;10245;51.344;6.620;2023-05-28T10:46:09;11.02;;;4.60;;
20170;SDS011;10245;51.344;6.620;2023-05-28T10:48:33;9.52;;;4.70;;
20170;SDS011;10245;51.344;6.620;2023-05-28T10:51:03;7.13;;;4.38;;
20170;SDS011;10245;51.344;6.620;2023-05-28T10:53:27;6.57;;;4.18;;
20170;SDS011;10245;51.344;6.620;2023-05-28T10:55:51;7.18;;;3.70;;
20170;SDS011;10245;51.344;6.620;2023-05-28T10:58:23;6.32;;;4.32;;
20170;SDS011;10245;51.344;6.620;2023-05-28T11:00:49;12.15;;;4.45;;
20170;SDS011;10245;51.344;6.620;2023-05-28T11:03:14;9.23;;;4.00;;
20170;SDS011;10245;51.344;6.620;2023-05-28T11:05:37;7.20;;;3.90;;
20170;SDS011;10245;51.344;6.620;2023-05-28T11:08:01;9.50;;;4.35;;
20170;SDS011;10245;51.344;6.620;2023-05-28T11:10:24;9.25;;;4.43;;
20170;SDS011;10245;51.344;6.620;2023-05-28T11:12:53;8.40;;;4.07;;
20170;SDS011;10245;51.344;6.620;2023-05-28T11:15:16;7.03;;;4.05;;
20170;SDS011;10245;51.344;6.620;2023-05-28T11:17:40;11.93;;;5.03;;
20170;SDS011;10245;51.344;6.620;2023-05-28T11:20:17;9.60;;;4.75;;
20170;SDS011;10245;51.344;6.620;2023-05-28T11:22:42;9.05;;;4.35;;
20170;SDS011;10245;51.344;6.620;2023-05-28T11:25:06;7.78;;;4.03;;
20170;SDS011;10245;51.344;6.620;2023-05-28T11:27:31;7.68;;;4.05;;
20170;SDS011;10245;51.344;6.620;2023-05-28T11:29:57;5.40;;;3.75;;
20170;SDS011;10245;51.344;6.620;2023-05-28T11:32:26;6.45;;;3.95;;
20170;SDS011;10245;51.344;6.620;2023-05-28T11:34:51;7.35;;;4.20;;
20170;SDS011;10245;51.344;6.620;2023-05-28T11:37:21;8.60;;;4.45;;
20170;SDS011;10245;51.344;6.620;2023-05-28T11:39:47;7.57;;;3.90;;
20170;SDS011;10245;51.344;6.620;2023-05-28T11:42:12;7.53;;;4.63;;
20170;SDS011;10245;51.344;6.620;2023-05-28T11:44:35;8.05;;;4.47;;
20170;SDS011;10245;51.344;6.620;2023-05-28T11:47:05;6.75;;;4.38;;
20170;SDS011;10245;51.344;6.620;2023-05-28T11:49:29;10.40;;;4.13;;
20170;SDS011;10245;51.344;6.620;2023-05-28T11:51:52;6.38;;;4.10;;
20170;SDS011;10245;51.344;6.620;2023-05-28T11:54:17;7.75;;;5.07;;
20170;SDS011;10245;51.344;6.620;2023-05-28T11:56:41;6.93;;;3.85;;
20170;SDS011;10245;51.344;6.620;2023-05-28T11:59:04;8.88;;;4.55;;
20170;SDS011;10245;51.344;6.620;2023-05-28T12:01:31;10.65;;;4.85;;
20170;SDS011;10245;51.344;6.620;2023-05-28T12:04:02;6.57;;;3.92;;
20170;SDS011;10245;51.344;6.620;2023-05-28T12:06:30;11.02;;;4.60;;
20170;SDS011;10245;51.344;6.620;2023-05-28T12:09:05;5.85;;;4.03;;
20170;SDS011;10245;51.344;6.620;2023-05-28T12:11:30;8.13;;;4.22;;
20170;SDS011;10245;51.344;6.620;2023-05-28T12:13:54;7.22;;;3.97;;
20170;SDS011;10245;51.344;6.620;2023-05-28T12:16:18;6.80;;;4.43;;
20170;SDS011;10245;51.344;6.620;2023-05-28T12:18:41;7.35;;;4.53;;
20170;SDS011;10245;51.344;6.620;2023-05-28T12:21:09;9.20;;;4.72;;
20170;SDS011;10245;51.344;6.620;2023-05-28T12:23:33;11.55;;;4.55;;
20170;SDS011;10245;51.344;6.620;2023-05-28T12:25:56;7.20;;;3.92;;
20170;SDS011;10245;51.344;6.620;2023-05-28T12:28:22;7.93;;;4.05;;
20170;SDS011;10245;51.344;6.620;2023-05-28T12:33:42;7.80;;;4.38;;
20170;SDS011;10245;51.344;6.620;2023-05-28T12:36:05;12.70;;;4.50;;
20170;SDS011;10245;51.344;6.620;2023-05-28T12:38:29;10.85;;;4.28;;
20170;SDS011;10245;51.344;6.620;2023-05-28T12:40:52;7.40;;;4.07;;
20170;SDS011;10245;51.344;6.620;2023-05-28T12:43:16;8.52;;;3.78;;
20170;SDS011;10245;51.344;6.620;2023-05-28T12:45:41;9.63;;;4.38;;
20170;SDS011;10245;51.344;6.620;2023-05-28T12:48:05;7.40;;;4.25;;
20170;SDS011;10245;51.344;6.620;2023-05-28T12:50:30;10.02;;;4.32;;
20170;SDS011;10245;51.344;6.620;2023-05-28T12:52:53;7.85;;;4.65;;
20170;SDS011;10245;51.344;6.620;2023-05-28T12:55:17;11.25;;;4.38;;
20170;SDS011;10245;51.344;6.620;2023-05-28T12:57:40;7.88;;;3.90;;
20170;SDS011;10245;51.344;6.620;2023-05-28T13:00:04;7.97;;;4.20;;
20170;SDS011;10245;51.344;6.620;2023-05-28T13:02:33;11.63;;;4.50;;
20170;SDS011;10245;51.344;6.620;2023-05-28T13:04:56;7.35;;;4.53;;
20170;SDS011;10245;51.344;6.620;2023-05-28T13:07:20;7.85;;;4.32;;
20170;SDS011;10245;51.344;6.620;2023-05-28T13:09:43;13.05;;;4.35;;
20170;SDS011;10245;51.344;6.620;2023-05-28T13:12:06;8.10;;;3.88;;
20170;SDS011;10245;51.344;6.620;2023-05-28T13:14:30;6.63;;;3.45;;
20170;SDS011;10245;51.344;6.620;2023-05-28T13:16:54;6.00;;;3.47;;
20170;SDS011;10245;51.344;6.620;2023-05-28T13:19:18;7.70;;;4.00;;
20170;SDS011;10245;51.344;6.620;2023-05-28T13:21:42;8.25;;;4.20;;
20170;SDS011;10245;51.344;6.620;2023-05-28T13:24:05;6.75;;;4.65;;
20170;SDS011;10245;51.344;6.620;2023-05-28T13:26:30;7.47;;;4.22;;
20170;SDS011;10245;51.344;6.620;2023-05-28T13:28:56;5.60;;;4.10;;
20170;SDS011;10245;51.344;6.620;2023-05-28T13:31:19;7.93;;;4.50;;
20170;SDS011;10245;51.344;6.620;2023-05-28T13:33:43;8.85;;;4.72;;
20170;SDS011;10245;51.344;6.620;2023-05-28T13:36:07;5.85;;;3.63;;
20170;SDS011;10245;51.344;6.620;2023-05-28T13:38:31;7.18;;;3.95;;
20170;SDS011;10245;51.344;6.620;2023-05-28T13:40:55;6.47;;;4.18;;
20170;SDS011;10245;51.344;6.620;2023-05-28T13:43:18;6.68;;;4.47;;
20170;SDS011;10245;51.344;6.620;2023-05-28T13:45:42;6.80;;;4.03;;
20170;SDS011;10245;51.344;6.620;2023-05-28T13:48:05;7.90;;;3.95;;
20170;SDS011;10245;51.344;6.620;2023-05-28T13:50:29;7.30;;;3.53;;
20170;SDS011;10245;51.344;6.620;2023-05-28T13:52:53;8.40;;;3.80;;
20170;SDS011;10245;51.344;6.620;2023-05-28T13:55:18;7.97;;;3.97;;
20170;SDS011;10245;51.344;6.620;2023-05-28T13:57:42;8.05;;;3.92;;
20170;SDS011;10245;51.344;6.620;2023-05-28T14:00:06;6.57;;;4.13;;
20170;SDS011;10245;51.344;6.620;2023-05-28T14:02:35;9.27;;;4.13;;
20170;SDS011;10245;51.344;6.620;2023-05-28T14:04:58;8.23;;;4.13;;
20170;SDS011;10245;51.344;6.620;2023-05-28T14:07:22;6.47;;;4.13;;
20170;SDS011;10245;51.344;6.620;2023-05-28T14:09:47;9.90;;;4.05;;
20170;SDS011;10245;51.344;6.620;2023-05-28T14:12:10;6.85;;;3.90;;
20170;SDS011;10245;51.344;6.620;2023-05-28T14:14:42;8.77;;;4.90;;
20170;SDS011;10245;51.344;6.620;2023-05-28T14:17:05;8.50;;;4.20;;
20170;SDS011;10245;51.344;6.620;2023-05-28T14:19:29;5.10;;;3.72;;
20170;SDS011;10245;51.344;6.620;2023-05-28T14:21:52;6.25;;;3.95;;
20170;SDS011;10245;51.344;6.620;2023-05-28T14:24:16;9.60;;;4.35;;
20170;SDS011;10245;51.344;6.620;2023-05-28T14:26:41;5.65;;;4.38;;
20170;SDS011;10245;51.344;6.620;2023-05-28T14:29:06;7.82;;;4.25;;
20170;SDS011;10245;51.344;6.620;2023-05-28T14:31:29;9.45;;;4.57;;
20170;SDS011;10245;51.344;6.620;2023-05-28T14:33:53;9.98;;;4.10;;